createdAt,value
2018-06-25T00:00:19.910Z,19.70
2018-06-25T00:02:48.415Z,19.70
2018-06-25T00:05:16.983Z,19.70
2018-06-25T00:07:45.562Z,19.70
2018-06-25T00:10:14.098Z,19.70
2018-06-25T00:12:42.607Z,19.60
2018-06-25T00:15:11.197Z,19.60
2018-06-25T00:17:39.707Z,19.60
2018-06-25T00:20:08.247Z,19.60
2018-06-25T00:22:36.760Z,19.60
2018-06-25T00:25:05.298Z,19.60
2018-06-25T00:27:33.985Z,19.60
2018-06-25T00:30:02.603Z,19.50
2018-06-25T00:32:31.117Z,19.50
2018-06-25T00:34:59.667Z,19.50
2018-06-25T00:37:28.187Z,19.50
2018-06-25T00:39:56.726Z,19.50
2018-06-25T00:42:25.238Z,19.50
2018-06-25T00:44:53.862Z,19.40
2018-06-25T00:47:22.355Z,19.40
2018-06-25T00:49:50.876Z,19.40
2018-06-25T00:52:19.413Z,19.40
2018-06-25T00:54:47.933Z,19.40
2018-06-25T00:57:16.469Z,19.40
2018-06-25T00:59:51.942Z,19.30
2018-06-25T01:02:20.959Z,19.30
2018-06-25T01:04:49.634Z,19.30
2018-06-25T01:07:18.944Z,19.30
2018-06-25T01:09:47.738Z,19.30
2018-06-25T01:12:16.289Z,19.20
2018-06-25T01:14:45.522Z,19.20
2018-06-25T01:17:14.171Z,19.20
2018-06-25T01:19:42.680Z,19.20
2018-06-25T01:22:11.682Z,19.20
2018-06-25T01:24:40.445Z,19.20
2018-06-25T01:27:10.286Z,19.10
2018-06-25T01:29:40.815Z,19.10
2018-06-25T01:32:09.416Z,19.10
2018-06-25T01:34:38.278Z,19.10
2018-06-25T01:37:06.907Z,19.10
2018-06-25T01:39:35.418Z,19.00
2018-06-25T01:42:04.018Z,19.00
2018-06-25T01:44:32.546Z,19.00
2018-06-25T01:47:01.076Z,19.00
2018-06-25T01:49:29.591Z,19.00
2018-06-25T01:51:58.127Z,18.90
2018-06-25T01:54:26.639Z,18.90
2018-06-25T01:56:55.197Z,18.90
2018-06-25T01:59:23.705Z,18.90
2018-06-25T02:01:53.543Z,18.90
2018-06-25T02:04:22.205Z,18.80
2018-06-25T02:06:50.793Z,18.80
2018-06-25T02:09:19.312Z,18.80
2018-06-25T02:11:47.863Z,18.80
2018-06-25T02:14:16.439Z,18.80
2018-06-25T02:16:45.716Z,18.70
2018-06-25T02:19:14.238Z,18.80
2018-06-25T02:21:43.030Z,18.70
2018-06-25T02:24:11.648Z,18.70
2018-06-25T02:26:40.195Z,18.70
2018-06-25T02:29:08.745Z,18.70
2018-06-25T02:31:37.569Z,18.60
2018-06-25T02:34:06.532Z,18.60
2018-06-25T02:36:35.074Z,18.60
2018-06-25T02:39:04.445Z,18.60
2018-06-25T02:41:33.014Z,18.60
2018-06-25T02:44:01.565Z,18.60
2018-06-25T02:46:30.142Z,18.60
2018-06-25T02:48:58.670Z,18.60
2018-06-25T02:51:27.229Z,18.60
2018-06-25T02:53:55.770Z,18.50
2018-06-25T02:56:24.345Z,18.50
2018-06-25T02:58:52.849Z,18.50
2018-06-25T03:01:21.502Z,18.50
2018-06-25T03:03:50.014Z,18.50
2018-06-25T03:06:18.554Z,18.50
2018-06-25T03:08:47.337Z,18.40
2018-06-25T03:11:15.889Z,18.40
2018-06-25T03:13:44.391Z,18.40
2018-06-25T03:16:12.896Z,18.40
2018-06-25T03:18:41.466Z,18.40
2018-06-25T03:21:09.979Z,18.30
2018-06-25T03:23:38.505Z,18.30
2018-06-25T03:26:07.218Z,18.30
2018-06-25T03:28:35.755Z,18.30
2018-06-25T03:31:04.305Z,18.30
2018-06-25T03:33:32.843Z,18.30
2018-06-25T03:36:01.367Z,18.30
2018-06-25T03:38:29.946Z,18.20
2018-06-25T03:40:58.439Z,18.30
2018-06-25T03:43:26.970Z,18.20
2018-06-25T03:45:55.494Z,18.20
2018-06-25T03:48:24.018Z,18.20
2018-06-25T03:50:52.666Z,18.20
2018-06-25T03:53:21.185Z,18.20
2018-06-25T03:55:49.713Z,18.20
2018-06-25T03:58:18.266Z,18.20
2018-06-25T04:00:46.779Z,18.10
2018-06-25T04:03:15.342Z,18.10
2018-06-25T04:08:12.746Z,18.10
2018-06-25T04:10:41.269Z,18.10
2018-06-25T04:13:09.785Z,18.10
2018-06-25T04:18:07.160Z,18.00
2018-06-25T04:20:35.759Z,18.00
2018-06-25T04:23:04.298Z,18.00
2018-06-25T04:25:32.809Z,18.00
2018-06-25T04:28:01.377Z,18.00
2018-06-25T04:30:29.878Z,18.00
2018-06-25T04:32:58.405Z,17.90
2018-06-25T04:35:26.904Z,17.90
2018-06-25T04:37:55.435Z,17.90
2018-06-25T04:40:23.958Z,17.90
2018-06-25T04:42:52.486Z,17.90
2018-06-25T04:45:21.100Z,17.90
2018-06-25T04:47:49.622Z,17.90
2018-06-25T04:50:18.125Z,17.80
2018-06-25T04:52:46.657Z,17.80
2018-06-25T04:55:15.187Z,17.80
2018-06-25T04:57:43.745Z,17.80
2018-06-25T05:00:12.341Z,17.80
2018-06-25T05:02:40.993Z,17.80
2018-06-25T05:05:09.577Z,17.80
2018-06-25T05:07:38.120Z,17.80
2018-06-25T05:10:06.679Z,17.70
2018-06-25T05:12:35.244Z,17.80
2018-06-25T05:15:04.034Z,17.80
2018-06-25T05:17:32.689Z,17.70
2018-06-25T05:20:01.253Z,17.80
2018-06-25T05:22:29.819Z,17.80
2018-06-25T05:24:58.382Z,17.70
2018-06-25T05:27:26.921Z,17.70
2018-06-25T05:29:55.526Z,17.70
2018-06-25T05:32:24.105Z,17.70
2018-06-25T05:34:52.655Z,17.70
2018-06-25T05:37:21.173Z,17.70
2018-06-25T05:39:49.741Z,17.70
2018-06-25T05:42:21.401Z,17.70
2018-06-25T05:44:51.150Z,17.70
2018-06-25T05:47:20.300Z,17.70
2018-06-25T05:49:48.894Z,17.70
2018-06-25T05:52:28.255Z,17.70
2018-06-25T05:55:01.694Z,17.70
2018-06-25T05:59:58.655Z,17.70
2018-06-25T06:02:27.217Z,17.70
2018-06-25T06:04:55.785Z,17.60
2018-06-25T06:07:24.330Z,17.60
2018-06-25T06:09:52.967Z,17.60
2018-06-25T06:12:21.489Z,17.70
2018-06-25T06:14:50.061Z,17.60
2018-06-25T06:17:18.651Z,17.60
2018-06-25T06:19:47.205Z,17.70
2018-06-25T06:22:15.815Z,17.70
2018-06-25T06:24:44.443Z,17.60
2018-06-25T06:27:12.993Z,17.60
2018-06-25T06:29:41.543Z,17.60
2018-06-25T06:32:10.107Z,17.70
2018-06-25T06:34:38.666Z,17.70
2018-06-25T06:37:07.242Z,17.70
2018-06-25T06:39:35.806Z,17.60
2018-06-25T06:42:04.348Z,17.60
2018-06-25T06:44:32.949Z,17.60
2018-06-25T06:47:01.497Z,17.60
2018-06-25T06:49:44.195Z,17.60
2018-06-25T06:52:12.738Z,17.70
2018-06-25T06:54:41.293Z,17.60
2018-06-25T06:57:09.862Z,17.60
2018-06-25T06:59:38.447Z,17.60
2018-06-25T07:02:06.994Z,17.70
2018-06-25T07:04:35.616Z,17.60
2018-06-25T07:07:04.271Z,17.60
2018-06-25T07:09:32.810Z,17.60
2018-06-25T07:12:01.327Z,17.60
2018-06-25T07:14:29.986Z,17.70
2018-06-25T07:16:58.501Z,17.70
2018-06-25T07:19:27.038Z,17.60
2018-06-25T07:21:55.542Z,17.70
2018-06-25T07:24:24.088Z,17.70
2018-06-25T07:26:52.613Z,17.70
2018-06-25T07:29:21.157Z,17.70
2018-06-25T07:31:49.833Z,17.70
2018-06-25T07:34:18.354Z,17.70
2018-06-25T07:36:46.928Z,17.70
2018-06-25T07:39:15.543Z,17.70
2018-06-25T07:41:44.115Z,17.70
2018-06-25T07:44:12.681Z,17.70
2018-06-25T07:46:41.330Z,17.80
2018-06-25T07:49:09.911Z,17.80
2018-06-25T07:51:38.503Z,17.80
2018-06-25T07:54:07.071Z,17.80
2018-06-25T07:56:50.016Z,17.80
2018-06-25T07:59:18.559Z,17.80
2018-06-25T08:01:47.173Z,17.90
2018-06-25T08:04:16.370Z,17.80
2018-06-25T08:06:45.099Z,17.90
2018-06-25T08:09:13.746Z,17.90
2018-06-25T08:11:42.343Z,17.90
2018-06-25T08:14:11.346Z,17.90
2018-06-25T08:16:40.241Z,17.90
2018-06-25T08:19:08.685Z,17.90
2018-06-25T08:21:37.238Z,18.00
2018-06-25T08:24:05.876Z,18.00
2018-06-25T08:26:34.427Z,18.00
2018-06-25T08:29:03.023Z,18.00
2018-06-25T08:31:31.727Z,18.00
2018-06-25T08:34:00.319Z,18.00
2018-06-25T08:36:28.958Z,18.00
2018-06-25T08:38:57.467Z,18.00
2018-06-25T08:41:26.165Z,18.00
2018-06-25T08:43:54.681Z,18.00
2018-06-25T08:46:23.214Z,18.00
2018-06-25T08:48:51.733Z,18.00
2018-06-25T08:51:20.335Z,18.00
2018-06-25T08:53:48.854Z,17.80
2018-06-25T08:56:17.420Z,17.80
2018-06-25T08:58:45.936Z,17.90
2018-06-25T09:01:14.474Z,17.90
2018-06-25T09:03:42.983Z,17.90
2018-06-25T09:06:11.550Z,18.00
2018-06-25T09:11:08.317Z,18.00
2018-06-25T09:13:36.877Z,18.00
2018-06-25T09:16:05.543Z,18.00
2018-06-25T09:18:34.058Z,18.10
2018-06-25T09:21:02.694Z,18.10
2018-06-25T09:23:31.224Z,18.10
2018-06-25T09:25:59.809Z,18.10
2018-06-25T09:28:28.309Z,18.10
2018-06-25T09:30:56.927Z,18.20
2018-06-25T09:33:25.449Z,18.20
2018-06-25T09:35:53.988Z,18.20
2018-06-25T09:38:22.533Z,18.20
2018-06-25T09:43:19.438Z,18.10
2018-06-25T09:45:47.959Z,18.10
2018-06-25T09:48:16.470Z,18.10
2018-06-25T09:53:13.235Z,18.10
2018-06-25T09:55:41.796Z,18.10
2018-06-25T09:58:10.366Z,18.10
2018-06-25T10:00:44.346Z,18.00
2018-06-25T10:03:12.888Z,18.10
2018-06-25T10:05:41.416Z,18.10
2018-06-25T10:08:09.966Z,18.10
2018-06-25T10:10:38.513Z,18.10
2018-06-25T10:13:07.222Z,18.10
2018-06-25T10:15:35.744Z,18.10
2018-06-25T10:18:04.366Z,18.20
2018-06-25T10:20:32.903Z,18.20
2018-06-25T10:23:01.444Z,18.40
2018-06-25T10:25:29.977Z,18.70
2018-06-25T10:27:58.526Z,18.70
2018-06-25T10:30:27.051Z,18.60
2018-06-25T10:32:55.590Z,18.60
2018-06-25T10:35:24.113Z,18.60
2018-06-25T10:37:52.662Z,18.60
2018-06-25T10:42:49.562Z,18.50
2018-06-25T10:45:18.096Z,18.60
2018-06-25T10:47:46.631Z,18.60
2018-06-25T10:50:15.138Z,18.80
2018-06-25T10:52:59.045Z,19.10
2018-06-25T10:55:28.021Z,19.50
2018-06-25T10:57:56.597Z,19.80
2018-06-25T11:00:25.200Z,19.90
2018-06-25T11:02:53.794Z,20.00
2018-06-25T11:05:22.405Z,19.80
2018-06-25T11:07:51.266Z,19.70
2018-06-25T11:10:19.854Z,19.50
2018-06-25T11:12:48.435Z,19.30
2018-06-25T11:15:16.946Z,19.20
2018-06-25T11:17:45.479Z,19.30
2018-06-25T11:20:13.987Z,19.50
2018-06-25T11:22:42.525Z,19.80
2018-06-25T11:25:11.057Z,20.00
2018-06-25T11:27:39.798Z,20.10
2018-06-25T11:30:08.274Z,20.30
2018-06-25T11:32:36.818Z,20.40
2018-06-25T11:35:05.511Z,20.40
2018-06-25T11:37:34.050Z,20.30
2018-06-25T11:40:02.596Z,20.10
2018-06-25T11:42:31.103Z,19.90
2018-06-25T11:45:00.361Z,19.70
2018-06-25T11:47:28.935Z,19.50
2018-06-25T11:49:57.496Z,19.40
2018-06-25T11:52:26.015Z,19.40
2018-06-25T11:54:54.594Z,19.30
2018-06-25T11:57:23.260Z,19.20
2018-06-25T11:59:51.821Z,19.20
2018-06-25T12:02:20.342Z,19.20
2018-06-25T12:04:48.944Z,19.10
2018-06-25T12:07:17.476Z,19.10
2018-06-25T12:09:46.027Z,19.10
2018-06-25T12:14:42.880Z,19.10
2018-06-25T12:17:11.426Z,19.20
2018-06-25T12:19:40.248Z,19.20
2018-06-25T12:22:09.402Z,19.20
2018-06-25T12:24:37.958Z,19.20
2018-06-25T12:27:06.537Z,19.20
2018-06-25T12:29:35.100Z,19.20
2018-06-25T12:32:03.706Z,19.20
2018-06-25T12:34:32.322Z,19.30
2018-06-25T12:37:00.825Z,19.30
2018-06-25T12:39:29.366Z,19.40
2018-06-25T12:41:57.899Z,19.50
2018-06-25T12:44:26.448Z,19.60
2018-06-25T12:46:54.973Z,19.70
2018-06-25T12:49:32.822Z,19.70
2018-06-25T12:52:01.731Z,19.70
2018-06-25T12:54:30.332Z,19.70
2018-06-25T12:56:58.969Z,19.70
2018-06-25T12:59:28.474Z,19.70
2018-06-25T13:04:25.260Z,19.60
2018-06-25T13:06:54.058Z,19.60
2018-06-25T13:09:22.699Z,19.60
2018-06-25T13:11:51.202Z,19.60
2018-06-25T13:14:19.743Z,19.60
2018-06-25T13:16:48.246Z,19.60
2018-06-25T13:19:16.775Z,19.60
2018-06-25T13:21:45.286Z,19.60
2018-06-25T13:24:14.971Z,19.60
2018-06-25T13:26:43.747Z,19.70
2018-06-25T13:29:15.201Z,19.70
2018-06-25T13:31:43.838Z,19.80
2018-06-25T13:34:12.335Z,19.90
2018-06-25T13:39:10.386Z,20.10
2018-06-25T13:41:38.931Z,20.20
2018-06-25T13:44:07.487Z,20.10
2018-06-25T13:46:36.042Z,20.10
2018-06-25T13:49:04.613Z,19.90
2018-06-25T13:51:33.506Z,19.80
2018-06-25T13:54:02.103Z,19.80
2018-06-25T13:56:30.673Z,19.80
2018-06-25T13:58:59.864Z,19.70
2018-06-25T14:01:28.493Z,19.80
2018-06-25T14:03:57.007Z,19.80
2018-06-25T14:06:25.662Z,19.80
2018-06-25T14:08:54.168Z,19.80
2018-06-25T14:11:23.010Z,19.80
2018-06-25T14:13:51.577Z,19.80
2018-06-25T14:16:20.201Z,19.80
2018-06-25T14:18:48.798Z,19.80
2018-06-25T14:21:17.755Z,19.90
2018-06-25T14:23:51.870Z,20.90
2018-06-25T14:26:21.134Z,21.80
2018-06-25T14:28:49.716Z,22.50
2018-06-25T14:31:25.242Z,22.80
2018-06-25T14:33:59.149Z,23.00
2018-06-25T14:38:56.050Z,23.30
2018-06-25T14:41:24.968Z,23.40
2018-06-25T14:43:54.281Z,23.60
2018-06-25T14:46:22.851Z,23.60
2018-06-25T14:48:51.397Z,23.80
2018-06-25T14:51:20.171Z,23.80
2018-06-25T14:53:48.819Z,23.90
2018-06-25T14:56:17.539Z,23.90
2018-06-25T14:58:46.083Z,23.90
2018-06-25T15:01:14.869Z,23.80
2018-06-25T15:03:43.489Z,23.80
2018-06-25T15:06:12.113Z,23.80
2018-06-25T15:08:41.234Z,23.80
2018-06-25T15:11:09.801Z,23.80
2018-06-25T15:13:38.456Z,23.80
2018-06-25T15:16:07.040Z,23.80
2018-06-25T15:18:36.316Z,23.80
2018-06-25T15:21:05.296Z,23.80
2018-06-25T15:23:33.845Z,23.70
2018-06-25T15:26:02.415Z,23.70
2018-06-25T15:28:30.949Z,23.70
2018-06-25T15:30:59.622Z,23.70
2018-06-25T15:33:28.159Z,23.70
2018-06-25T15:35:56.722Z,23.70
2018-06-25T15:38:25.285Z,23.70
2018-06-25T15:40:53.877Z,23.60
2018-06-25T15:43:22.391Z,23.70
2018-06-25T15:45:50.905Z,23.60
2018-06-25T15:48:19.598Z,23.70
2018-06-25T15:50:48.222Z,23.60
2018-06-25T15:55:44.995Z,23.60
2018-06-25T15:58:13.578Z,23.50
2018-06-25T16:00:42.114Z,23.50
2018-06-25T16:03:10.698Z,23.50
2018-06-25T16:05:40.066Z,23.50
2018-06-25T16:08:08.678Z,23.50
2018-06-25T16:10:37.353Z,23.50
2018-06-25T16:13:07.181Z,23.40
2018-06-25T16:15:35.705Z,23.40
2018-06-25T16:20:32.490Z,23.40
2018-06-25T16:23:01.082Z,23.30
2018-06-25T16:25:30.462Z,23.30
2018-06-25T16:27:59.214Z,23.30
2018-06-25T16:30:28.259Z,23.30
2018-06-25T16:32:57.129Z,23.30
2018-06-25T16:35:26.179Z,23.20
2018-06-25T16:37:55.260Z,23.20
2018-06-25T16:40:45.621Z,23.20
2018-06-25T16:45:43.432Z,23.20
2018-06-25T16:48:12.125Z,23.10
2018-06-25T16:50:40.653Z,23.10
2018-06-25T16:53:09.311Z,23.10
2018-06-25T16:55:38.122Z,23.10
2018-06-25T16:58:06.834Z,23.00
2018-06-25T17:00:35.545Z,23.00
2018-06-25T17:03:04.250Z,23.00
2018-06-25T17:05:32.817Z,23.00
2018-06-25T17:08:01.355Z,23.00
2018-06-25T17:10:29.955Z,23.00
2018-06-25T17:12:58.496Z,22.90
2018-06-25T17:15:27.083Z,22.90
2018-06-25T17:17:55.685Z,22.90
2018-06-25T17:20:24.204Z,22.90
2018-06-25T17:22:52.740Z,22.90
2018-06-25T17:25:21.290Z,22.90
2018-06-25T17:27:49.835Z,22.90
2018-06-25T17:32:46.699Z,22.80
2018-06-25T17:35:15.211Z,22.80
2018-06-25T17:37:43.749Z,22.80
2018-06-25T17:40:12.343Z,22.70
2018-06-25T17:42:40.977Z,22.80
2018-06-25T17:45:09.541Z,22.70
2018-06-25T17:47:38.061Z,22.70
2018-06-25T17:50:06.937Z,22.70
2018-06-25T17:52:35.481Z,22.70
2018-06-25T17:55:04.298Z,22.60
2018-06-25T17:57:32.898Z,22.70
2018-06-25T18:00:01.600Z,22.60
2018-06-25T18:02:30.185Z,22.60
2018-06-25T18:04:58.743Z,22.60
2018-06-25T18:07:27.292Z,22.60
2018-06-25T18:09:55.853Z,22.50
2018-06-25T18:12:24.402Z,22.50
2018-06-25T18:14:53.461Z,22.50
2018-06-25T18:17:22.510Z,22.50
2018-06-25T18:19:51.062Z,22.50
2018-06-25T18:22:19.663Z,22.50
2018-06-25T18:24:48.210Z,22.40
2018-06-25T18:27:16.779Z,22.40
2018-06-25T18:29:45.352Z,22.40
2018-06-25T18:32:14.047Z,22.40
2018-06-25T18:34:42.622Z,22.40
2018-06-25T18:37:11.152Z,22.40
2018-06-25T18:39:39.926Z,22.30
2018-06-25T18:42:08.761Z,22.40
2018-06-25T18:44:37.654Z,22.30
2018-06-25T18:47:06.531Z,22.30
2018-06-25T18:49:35.355Z,22.30
2018-06-25T18:52:04.319Z,22.30
2018-06-25T18:54:33.137Z,22.20
2018-06-25T18:57:02.075Z,22.20
2018-06-25T18:59:30.984Z,22.20
2018-06-25T19:01:59.678Z,22.20
2018-06-25T19:04:28.582Z,22.10
2018-06-25T19:06:57.296Z,22.10
2018-06-25T19:09:26.141Z,22.10
2018-06-25T19:11:54.901Z,22.10
2018-06-25T19:14:23.845Z,22.00
2018-06-25T19:16:53.500Z,22.00
2018-06-25T19:19:22.386Z,22.00
2018-06-25T19:21:51.751Z,22.00
2018-06-25T19:24:21.094Z,22.00
2018-06-25T19:26:50.046Z,22.00
2018-06-25T19:31:47.085Z,21.90
2018-06-25T19:34:15.984Z,21.90
2018-06-25T19:36:44.768Z,21.90
2018-06-25T19:39:14.351Z,21.80
2018-06-25T19:41:43.075Z,21.80
2018-06-25T19:44:12.739Z,21.80
2018-06-25T19:46:41.580Z,21.80
2018-06-25T19:49:10.219Z,21.70
2018-06-25T19:51:39.084Z,21.70
2018-06-25T19:56:36.276Z,21.70
2018-06-25T19:59:04.825Z,21.60
2018-06-25T20:01:33.574Z,21.60
2018-06-25T20:04:02.279Z,21.60
2018-06-25T20:06:31.048Z,21.60
2018-06-25T20:08:59.753Z,21.60
2018-06-25T20:11:28.316Z,21.60
2018-06-25T20:13:56.883Z,21.50
2018-06-25T20:16:25.452Z,21.50
2018-06-25T20:18:54.158Z,21.40
2018-06-25T20:21:22.740Z,21.40
2018-06-25T20:23:51.300Z,21.40
2018-06-25T20:26:19.871Z,21.40
2018-06-25T20:28:48.400Z,21.30
2018-06-25T20:31:17.017Z,21.30
2018-06-25T20:33:45.577Z,21.30
2018-06-25T20:36:14.202Z,21.30
2018-06-25T20:38:42.735Z,21.30
2018-06-25T20:41:11.333Z,21.30
2018-06-25T20:43:39.907Z,21.20
2018-06-25T20:46:08.502Z,21.20
2018-06-25T20:48:37.059Z,21.20
2018-06-25T20:51:05.645Z,21.10
2018-06-25T20:53:34.186Z,21.10
2018-06-25T20:56:02.874Z,21.10
2018-06-25T20:58:31.420Z,21.10
2018-06-25T21:01:00.024Z,21.10
2018-06-25T21:03:28.638Z,21.10
2018-06-25T21:05:57.263Z,21.00
2018-06-25T21:08:25.793Z,21.00
2018-06-25T21:10:54.326Z,21.00
2018-06-25T21:13:22.823Z,20.90
2018-06-25T21:15:51.534Z,20.90
2018-06-25T21:18:20.066Z,20.90
2018-06-25T21:20:48.638Z,20.90
2018-06-25T21:23:17.152Z,20.80
2018-06-25T21:25:45.794Z,20.80
2018-06-25T21:28:14.300Z,20.80
2018-06-25T21:33:11.067Z,20.80
2018-06-25T21:35:39.730Z,20.70
2018-06-25T21:38:08.349Z,20.70
2018-06-25T21:40:37.060Z,20.70
2018-06-25T21:43:05.581Z,20.60
2018-06-25T21:45:34.137Z,20.60
2018-06-25T21:48:02.643Z,20.60
2018-06-25T21:52:59.774Z,20.60
2018-06-25T21:55:28.339Z,20.60
2018-06-25T21:57:56.870Z,20.50
2018-06-25T22:00:36.335Z,20.50
2018-06-25T22:03:04.896Z,20.50
2018-06-25T22:05:33.437Z,20.50
2018-06-25T22:08:02.126Z,20.50
2018-06-25T22:10:30.705Z,20.40
2018-06-25T22:12:59.238Z,20.40
2018-06-25T22:15:27.817Z,20.40
2018-06-25T22:17:56.360Z,20.40
2018-06-25T22:20:24.973Z,20.30
2018-06-25T22:22:53.562Z,20.30
2018-06-25T22:25:22.114Z,20.30
2018-06-25T22:27:50.670Z,20.30
2018-06-25T22:30:19.249Z,20.20
2018-06-25T22:32:48.484Z,20.20
2018-06-25T22:35:17.017Z,20.20
2018-06-25T22:37:45.657Z,20.20
2018-06-25T22:40:14.326Z,20.10
2018-06-25T22:42:42.919Z,20.10
2018-06-25T22:45:11.706Z,20.10
2018-06-25T22:47:40.392Z,20.10
2018-06-25T22:50:08.941Z,20.00
2018-06-25T22:52:37.498Z,20.00
2018-06-25T22:55:06.565Z,20.00
2018-06-25T22:57:35.169Z,20.00
2018-06-25T23:00:04.131Z,20.00
2018-06-25T23:02:32.719Z,19.90
2018-06-25T23:05:01.266Z,19.90
2018-06-25T23:07:29.877Z,19.90
2018-06-25T23:09:58.416Z,19.90
2018-06-25T23:12:27.038Z,19.80
2018-06-25T23:14:55.565Z,19.80
2018-06-25T23:17:24.141Z,19.80
2018-06-25T23:19:52.700Z,19.80
2018-06-25T23:22:21.261Z,19.70
2018-06-25T23:24:49.800Z,19.70
2018-06-25T23:27:18.354Z,19.70
2018-06-25T23:29:46.877Z,19.70
2018-06-25T23:32:15.425Z,19.70
2018-06-25T23:34:44.444Z,19.60
2018-06-25T23:37:13.002Z,19.60
2018-06-25T23:39:42.124Z,19.60
2018-06-25T23:42:10.690Z,19.60
2018-06-25T23:44:39.231Z,19.60
2018-06-25T23:47:08.063Z,19.50
2018-06-25T23:49:36.604Z,19.50
2018-06-25T23:52:05.176Z,19.50
2018-06-25T23:54:33.914Z,19.40
2018-06-25T23:57:02.494Z,19.40
2018-06-25T23:59:31.026Z,19.40
